sensor_id;sensor_type;location;lat;lon;timestamp;P1;durP1;ratioP1;P2;durP2;ratioP2
28427;SDS011;15662;49.128;8.520;2023-07-20T00:01:01;2.05;;;1.20;;
28427;SDS011;15662;49.128;8.520;2023-07-20T00:03:29;1.17;;;1.08;;
28427;SDS011;15662;49.128;8.520;2023-07-20T00:05:58;1.33;;;1.23;;
28427;SDS011;15662;49.128;8.520;2023-07-20T00:08:27;1.50;;;1.15;;
28427;SDS011;15662;49.128;8.520;2023-07-20T00:10:56;1.30;;;1.20;;
28427;SDS011;15662;49.128;8.520;2023-07-20T00:13:24;1.30;;;1.20;;
28427;SDS011;15662;49.128;8.520;2023-07-20T00:15:53;1.23;;;1.13;;
28427;SDS011;15662;49.128;8.520;2023-07-20T00:18:21;1.30;;;1.20;;
28427;SDS011;15662;49.128;8.520;2023-07-20T00:20:50;3.28;;;1.40;;
28427;SDS011;15662;49.128;8.520;2023-07-20T00:23:19;1.27;;;1.00;;
28427;SDS011;15662;49.128;8.520;2023-07-20T00:25:50;1.48;;;1.15;;
28427;SDS011;15662;49.128;8.520;2023-07-20T00:28:20;1.67;;;1.25;;
28427;SDS011;15662;49.128;8.520;2023-07-20T00:30:48;1.67;;;1.17;;
28427;SDS011;15662;49.128;8.520;2023-07-20T00:33:16;1.20;;;1.10;;
28427;SDS011;15662;49.128;8.520;2023-07-20T00:35:45;2.58;;;1.20;;
28427;SDS011;15662;49.128;8.520;2023-07-20T00:38:16;1.60;;;1.05;;
28427;SDS011;15662;49.128;8.520;2023-07-20T00:40:43;2.83;;;1.30;;
28427;SDS011;15662;49.128;8.520;2023-07-20T00:43:11;1.23;;;1.13;;
28427;SDS011;15662;49.128;8.520;2023-07-20T00:45:39;1.42;;;1.33;;
28427;SDS011;15662;49.128;8.520;2023-07-20T00:48:07;4.60;;;1.30;;
28427;SDS011;15662;49.128;8.520;2023-07-20T00:50:36;2.10;;;1.17;;
28427;SDS011;15662;49.128;8.520;2023-07-20T00:53:04;1.60;;;1.50;;
28427;SDS011;15662;49.128;8.520;2023-07-20T00:55:33;1.70;;;1.20;;
28427;SDS011;15662;49.128;8.520;2023-07-20T00:58:02;1.17;;;1.17;;
28427;SDS011;15662;49.128;8.520;2023-07-20T01:00:31;1.75;;;1.15;;
28427;SDS011;15662;49.128;8.520;2023-07-20T01:03:00;1.10;;;1.10;;
28427;SDS011;15662;49.128;8.520;2023-07-20T01:05:42;1.45;;;1.08;;
28427;SDS011;15662;49.128;8.520;2023-07-20T01:08:54;1.50;;;1.30;;
28427;SDS011;15662;49.128;8.520;2023-07-20T01:14:55;1.33;;;1.20;;
28427;SDS011;15662;49.128;8.520;2023-07-20T01:17:24;1.55;;;1.45;;
28427;SDS011;15662;49.128;8.520;2023-07-20T01:19:52;2.40;;;1.20;;
28427;SDS011;15662;49.128;8.520;2023-07-20T01:28:52;2.08;;;1.30;;
28427;SDS011;15662;49.128;8.520;2023-07-20T01:31:58;2.35;;;1.33;;
28427;SDS011;15662;49.128;8.520;2023-07-20T01:34:32;1.77;;;1.40;;
28427;SDS011;15662;49.128;8.520;2023-07-20T01:37:04;1.02;;;0.93;;
28427;SDS011;15662;49.128;8.520;2023-07-20T01:39:34;1.77;;;1.30;;
28427;SDS011;15662;49.128;8.520;2023-07-20T01:42:04;1.40;;;1.30;;
28427;SDS011;15662;49.128;8.520;2023-07-20T01:44:34;1.10;;;1.00;;
28427;SDS011;15662;49.128;8.520;2023-07-20T01:47:04;1.35;;;1.10;;
28427;SDS011;15662;49.128;8.520;2023-07-20T01:49:32;1.50;;;1.40;;
28427;SDS011;15662;49.128;8.520;2023-07-20T01:52:00;2.20;;;1.23;;
28427;SDS011;15662;49.128;8.520;2023-07-20T01:54:30;1.60;;;1.30;;
28427;SDS011;15662;49.128;8.520;2023-07-20T01:57:00;3.20;;;1.42;;
28427;SDS011;15662;49.128;8.520;2023-07-20T01:59:28;1.85;;;1.15;;
28427;SDS011;15662;49.128;8.520;2023-07-20T02:01:57;1.67;;;1.10;;
28427;SDS011;15662;49.128;8.520;2023-07-20T02:04:26;1.23;;;1.13;;
28427;SDS011;15662;49.128;8.520;2023-07-20T02:06:55;2.83;;;1.20;;
28427;SDS011;15662;49.128;8.520;2023-07-20T02:09:24;2.50;;;1.27;;
28427;SDS011;15662;49.128;8.520;2023-07-20T02:11:52;1.23;;;1.13;;
28427;SDS011;15662;49.128;8.520;2023-07-20T02:14:20;1.38;;;1.27;;
28427;SDS011;15662;49.128;8.520;2023-07-20T02:16:50;2.40;;;1.65;;
28427;SDS011;15662;49.128;8.520;2023-07-20T02:19:20;1.33;;;1.15;;
28427;SDS011;15662;49.128;8.520;2023-07-20T02:21:48;1.23;;;1.13;;
28427;SDS011;15662;49.128;8.520;2023-07-20T02:24:17;2.05;;;1.48;;
28427;SDS011;15662;49.128;8.520;2023-07-20T02:26:46;1.30;;;1.20;;
28427;SDS011;15662;49.128;8.520;2023-07-20T02:29:14;1.70;;;1.50;;
28427;SDS011;15662;49.128;8.520;2023-07-20T02:31:43;4.65;;;1.30;;
28427;SDS011;15662;49.128;8.520;2023-07-20T02:34:12;2.45;;;1.30;;
28427;SDS011;15662;49.128;8.520;2023-07-20T02:36:41;1.45;;;1.35;;
28427;SDS011;15662;49.128;8.520;2023-07-20T02:39:10;2.45;;;1.42;;
28427;SDS011;15662;49.128;8.520;2023-07-20T02:41:40;1.05;;;1.05;;
28427;SDS011;15662;49.128;8.520;2023-07-20T02:44:09;1.83;;;1.63;;
28427;SDS011;15662;49.128;8.520;2023-07-20T02:46:37;1.60;;;1.33;;
28427;SDS011;15662;49.128;8.520;2023-07-20T02:49:06;1.40;;;1.30;;
28427;SDS011;15662;49.128;8.520;2023-07-20T02:51:35;1.77;;;1.33;;
28427;SDS011;15662;49.128;8.520;2023-07-20T02:54:04;1.48;;;1.30;;
28427;SDS011;15662;49.128;8.520;2023-07-20T02:56:33;2.58;;;1.50;;
28427;SDS011;15662;49.128;8.520;2023-07-20T02:59:04;1.70;;;1.60;;
28427;SDS011;15662;49.128;8.520;2023-07-20T03:01:32;2.15;;;1.48;;
28427;SDS011;15662;49.128;8.520;2023-07-20T03:04:01;2.13;;;1.70;;
28427;SDS011;15662;49.128;8.520;2023-07-20T03:06:31;2.28;;;1.40;;
28427;SDS011;15662;49.128;8.520;2023-07-20T03:08:59;1.48;;;1.38;;
28427;SDS011;15662;49.128;8.520;2023-07-20T03:11:27;2.92;;;1.67;;
28427;SDS011;15662;49.128;8.520;2023-07-20T03:13:57;1.60;;;1.50;;
28427;SDS011;15662;49.128;8.520;2023-07-20T03:16:25;1.80;;;1.67;;
28427;SDS011;15662;49.128;8.520;2023-07-20T03:18:54;2.70;;;1.50;;
28427;SDS011;15662;49.128;8.520;2023-07-20T03:23:57;1.58;;;1.40;;
28427;SDS011;15662;49.128;8.520;2023-07-20T03:26:26;2.53;;;1.45;;
28427;SDS011;15662;49.128;8.520;2023-07-20T03:28:58;1.67;;;1.58;;
28427;SDS011;15662;49.128;8.520;2023-07-20T03:31:29;1.75;;;1.38;;
28427;SDS011;15662;49.128;8.520;2023-07-20T03:33:59;2.13;;;1.63;;
28427;SDS011;15662;49.128;8.520;2023-07-20T03:36:29;2.47;;;1.63;;
28427;SDS011;15662;49.128;8.520;2023-07-20T03:39:01;2.08;;;1.85;;
28427;SDS011;15662;49.128;8.520;2023-07-20T03:41:32;2.90;;;1.58;;
28427;SDS011;15662;49.128;8.520;2023-07-20T03:44:03;1.77;;;1.48;;
28427;SDS011;15662;49.128;8.520;2023-07-20T03:46:33;3.70;;;2.22;;
28427;SDS011;15662;49.128;8.520;2023-07-20T03:49:02;1.90;;;1.42;;
28427;SDS011;15662;49.128;8.520;2023-07-20T03:51:32;3.03;;;1.88;;
28427;SDS011;15662;49.128;8.520;2023-07-20T03:54:01;3.10;;;1.67;;
28427;SDS011;15662;49.128;8.520;2023-07-20T03:56:29;4.00;;;1.70;;
28427;SDS011;15662;49.128;8.520;2023-07-20T03:59:02;2.10;;;1.48;;
28427;SDS011;15662;49.128;8.520;2023-07-20T04:01:32;2.15;;;1.83;;
28427;SDS011;15662;49.128;8.520;2023-07-20T04:04:06;2.78;;;1.75;;
28427;SDS011;15662;49.128;8.520;2023-07-20T04:06:35;2.67;;;1.67;;
28427;SDS011;15662;49.128;8.520;2023-07-20T04:09:05;2.33;;;1.88;;
28427;SDS011;15662;49.128;8.520;2023-07-20T04:11:33;2.30;;;1.85;;
28427;SDS011;15662;49.128;8.520;2023-07-20T04:14:02;4.38;;;1.90;;
28427;SDS011;15662;49.128;8.520;2023-07-20T04:16:30;1.80;;;1.65;;
28427;SDS011;15662;49.128;8.520;2023-07-20T04:19:00;1.85;;;1.73;;
28427;SDS011;15662;49.128;8.520;2023-07-20T04:21:28;2.65;;;2.00;;
28427;SDS011;15662;49.128;8.520;2023-07-20T04:23:56;2.30;;;2.00;;
28427;SDS011;15662;49.128;8.520;2023-07-20T04:26:25;2.03;;;1.77;;
28427;SDS011;15662;49.128;8.520;2023-07-20T04:28:56;4.53;;;1.92;;
28427;SDS011;15662;49.128;8.520;2023-07-20T04:31:33;2.28;;;1.50;;
28427;SDS011;15662;49.128;8.520;2023-07-20T04:34:03;1.92;;;1.75;;
28427;SDS011;15662;49.128;8.520;2023-07-20T04:36:34;3.35;;;2.13;;
28427;SDS011;15662;49.128;8.520;2023-07-20T04:41:52;3.28;;;2.13;;
28427;SDS011;15662;49.128;8.520;2023-07-20T04:44:21;7.68;;;5.57;;
28427;SDS011;15662;49.128;8.520;2023-07-20T04:46:50;6.43;;;5.53;;
28427;SDS011;15662;49.128;8.520;2023-07-20T04:49:19;5.80;;;3.80;;
28427;SDS011;15662;49.128;8.520;2023-07-20T04:51:47;3.30;;;2.75;;
28427;SDS011;15662;49.128;8.520;2023-07-20T04:54:17;2.75;;;2.50;;
28427;SDS011;15662;49.128;8.520;2023-07-20T04:56:48;3.65;;;2.75;;
28427;SDS011;15662;49.128;8.520;2023-07-20T04:59:20;4.07;;;2.50;;
28427;SDS011;15662;49.128;8.520;2023-07-20T05:01:48;2.53;;;2.33;;
28427;SDS011;15662;49.128;8.520;2023-07-20T05:04:17;4.47;;;2.10;;
28427;SDS011;15662;49.128;8.520;2023-07-20T05:09:17;1.90;;;1.80;;
28427;SDS011;15662;49.128;8.520;2023-07-20T05:11:46;1.98;;;1.88;;
28427;SDS011;15662;49.128;8.520;2023-07-20T05:14:17;2.33;;;2.10;;
28427;SDS011;15662;49.128;8.520;2023-07-20T05:16:46;3.25;;;1.80;;
28427;SDS011;15662;49.128;8.520;2023-07-20T05:19:14;2.75;;;2.05;;
28427;SDS011;15662;49.128;8.520;2023-07-20T05:21:43;3.30;;;2.13;;
28427;SDS011;15662;49.128;8.520;2023-07-20T05:24:11;3.22;;;1.67;;
28427;SDS011;15662;49.128;8.520;2023-07-20T05:26:40;3.35;;;1.77;;
28427;SDS011;15662;49.128;8.520;2023-07-20T05:29:09;2.58;;;2.00;;
28427;SDS011;15662;49.128;8.520;2023-07-20T05:31:37;2.75;;;1.90;;
28427;SDS011;15662;49.128;8.520;2023-07-20T05:34:06;2.00;;;1.90;;
28427;SDS011;15662;49.128;8.520;2023-07-20T05:36:35;3.58;;;2.00;;
28427;SDS011;15662;49.128;8.520;2023-07-20T05:39:04;2.30;;;2.00;;
28427;SDS011;15662;49.128;8.520;2023-07-20T05:41:33;1.70;;;1.60;;
28427;SDS011;15662;49.128;8.520;2023-07-20T05:44:01;3.65;;;2.00;;
28427;SDS011;15662;49.128;8.520;2023-07-20T05:46:38;3.25;;;2.00;;
28427;SDS011;15662;49.128;8.520;2023-07-20T05:49:22;3.40;;;1.90;;
28427;SDS011;15662;49.128;8.520;2023-07-20T05:51:51;2.80;;;1.70;;
28427;SDS011;15662;49.128;8.520;2023-07-20T05:54:19;1.65;;;1.52;;
28427;SDS011;15662;49.128;8.520;2023-07-20T05:56:47;3.15;;;1.90;;
28427;SDS011;15662;49.128;8.520;2023-07-20T05:59:17;1.85;;;1.67;;
28427;SDS011;15662;49.128;8.520;2023-07-20T06:01:46;2.20;;;1.50;;
28427;SDS011;15662;49.128;8.520;2023-07-20T06:04:16;2.78;;;2.00;;
28427;SDS011;15662;49.128;8.520;2023-07-20T06:06:44;2.45;;;1.83;;
28427;SDS011;15662;49.128;8.520;2023-07-20T06:09:13;2.65;;;1.85;;
28427;SDS011;15662;49.128;8.520;2023-07-20T06:11:45;3.28;;;1.80;;
28427;SDS011;15662;49.128;8.520;2023-07-20T06:14:25;3.40;;;2.00;;
28427;SDS011;15662;49.128;8.520;2023-07-20T06:16:54;2.72;;;1.77;;
28427;SDS011;15662;49.128;8.520;2023-07-20T06:19:22;1.90;;;1.70;;
28427;SDS011;15662;49.128;8.520;2023-07-20T06:21:52;3.03;;;1.85;;
28427;SDS011;15662;49.128;8.520;2023-07-20T06:24:22;2.00;;;1.83;;
28427;SDS011;15662;49.128;8.520;2023-07-20T06:26:50;2.45;;;1.95;;
28427;SDS011;15662;49.128;8.520;2023-07-20T06:29:18;4.35;;;1.73;;
28427;SDS011;15662;49.128;8.520;2023-07-20T06:31:49;1.90;;;1.60;;
28427;SDS011;15662;49.128;8.520;2023-07-20T06:34:17;2.20;;;1.55;;
28427;SDS011;15662;49.128;8.520;2023-07-20T06:36:50;2.10;;;1.90;;
28427;SDS011;15662;49.128;8.520;2023-07-20T06:39:18;2.17;;;1.77;;
28427;SDS011;15662;49.128;8.520;2023-07-20T06:41:49;3.28;;;1.92;;
28427;SDS011;15662;49.128;8.520;2023-07-20T06:44:22;1.70;;;1.60;;
28427;SDS011;15662;49.128;8.520;2023-07-20T06:46:50;2.33;;;1.75;;
28427;SDS011;15662;49.128;8.520;2023-07-20T06:49:25;6.10;;;2.00;;
28427;SDS011;15662;49.128;8.520;2023-07-20T06:51:56;4.45;;;1.85;;
28427;SDS011;15662;49.128;8.520;2023-07-20T06:54:25;2.83;;;2.13;;
28427;SDS011;15662;49.128;8.520;2023-07-20T06:56:53;1.70;;;1.60;;
28427;SDS011;15662;49.128;8.520;2023-07-20T07:01:53;1.45;;;1.35;;
28427;SDS011;15662;49.128;8.520;2023-07-20T07:04:22;1.90;;;1.70;;
28427;SDS011;15662;49.128;8.520;2023-07-20T07:06:51;4.22;;;2.50;;
28427;SDS011;15662;49.128;8.520;2023-07-20T07:09:19;3.75;;;1.70;;
28427;SDS011;15662;49.128;8.520;2023-07-20T07:11:48;3.72;;;1.80;;
28427;SDS011;15662;49.128;8.520;2023-07-20T07:14:16;1.85;;;1.75;;
28427;SDS011;15662;49.128;8.520;2023-07-20T07:16:45;3.03;;;1.83;;
28427;SDS011;15662;49.128;8.520;2023-07-20T07:19:13;2.00;;;1.73;;
28427;SDS011;15662;49.128;8.520;2023-07-20T07:21:43;1.92;;;1.45;;
28427;SDS011;15662;49.128;8.520;2023-07-20T07:24:11;2.17;;;1.67;;
28427;SDS011;15662;49.128;8.520;2023-07-20T07:26:45;5.35;;;1.90;;
28427;SDS011;15662;49.128;8.520;2023-07-20T07:29:14;2.22;;;1.60;;
28427;SDS011;15662;49.128;8.520;2023-07-20T07:31:44;2.38;;;1.73;;
28427;SDS011;15662;49.128;8.520;2023-07-20T07:34:13;1.92;;;1.60;;
28427;SDS011;15662;49.128;8.520;2023-07-20T07:36:41;3.92;;;1.88;;
28427;SDS011;15662;49.128;8.520;2023-07-20T07:39:11;4.47;;;1.58;;
28427;SDS011;15662;49.128;8.520;2023-07-20T07:41:43;1.77;;;1.58;;
28427;SDS011;15662;49.128;8.520;2023-07-20T07:44:12;2.30;;;1.40;;
28427;SDS011;15662;49.128;8.520;2023-07-20T07:46:41;1.65;;;1.50;;
28427;SDS011;15662;49.128;8.520;2023-07-20T07:49:10;5.18;;;1.38;;
28427;SDS011;15662;49.128;8.520;2023-07-20T07:51:39;1.35;;;1.17;;
28427;SDS011;15662;49.128;8.520;2023-07-20T07:54:07;1.77;;;1.20;;
28427;SDS011;15662;49.128;8.520;2023-07-20T07:56:38;1.20;;;1.10;;
28427;SDS011;15662;49.128;8.520;2023-07-20T07:59:06;1.38;;;1.00;;
28427;SDS011;15662;49.128;8.520;2023-07-20T08:01:34;1.90;;;1.20;;
28427;SDS011;15662;49.128;8.520;2023-07-20T08:04:06;1.30;;;1.20;;
28427;SDS011;15662;49.128;8.520;2023-07-20T08:06:35;1.10;;;1.00;;
28427;SDS011;15662;49.128;8.520;2023-07-20T08:09:04;1.13;;;1.00;;
28427;SDS011;15662;49.128;8.520;2023-07-20T08:11:33;1.95;;;1.30;;
28427;SDS011;15662;49.128;8.520;2023-07-20T08:14:01;1.60;;;1.30;;
28427;SDS011;15662;49.128;8.520;2023-07-20T08:16:32;2.85;;;1.60;;
28427;SDS011;15662;49.128;8.520;2023-07-20T08:19:01;2.00;;;1.50;;
28427;SDS011;15662;49.128;8.520;2023-07-20T08:21:30;1.55;;;1.25;;
28427;SDS011;15662;49.128;8.520;2023-07-20T08:23:59;5.78;;;1.38;;
28427;SDS011;15662;49.128;8.520;2023-07-20T08:26:27;5.47;;;1.50;;
28427;SDS011;15662;49.128;8.520;2023-07-20T08:28:56;2.10;;;1.40;;
28427;SDS011;15662;49.128;8.520;2023-07-20T08:31:24;1.73;;;1.50;;
28427;SDS011;15662;49.128;8.520;2023-07-20T08:33:55;3.10;;;1.30;;
28427;SDS011;15662;49.128;8.520;2023-07-20T08:36:24;1.75;;;1.23;;
28427;SDS011;15662;49.128;8.520;2023-07-20T08:38:55;2.55;;;1.20;;
28427;SDS011;15662;49.128;8.520;2023-07-20T08:41:28;1.60;;;1.50;;
28427;SDS011;15662;49.128;8.520;2023-07-20T08:43:56;1.33;;;1.23;;
28427;SDS011;15662;49.128;8.520;2023-07-20T08:46:27;3.47;;;1.50;;
28427;SDS011;15662;49.128;8.520;2023-07-20T08:48:57;2.50;;;1.40;;
28427;SDS011;15662;49.128;8.520;2023-07-20T08:51:29;1.40;;;1.30;;
28427;SDS011;15662;49.128;8.520;2023-07-20T08:53:59;1.27;;;1.17;;
28427;SDS011;15662;49.128;8.520;2023-07-20T08:56:29;2.13;;;1.20;;
28427;SDS011;15662;49.128;8.520;2023-07-20T08:59:01;1.45;;;1.02;;
28427;SDS011;15662;49.128;8.520;2023-07-20T09:01:30;3.17;;;1.50;;
28427;SDS011;15662;49.128;8.520;2023-07-20T09:03:59;1.85;;;1.38;;
28427;SDS011;15662;49.128;8.520;2023-07-20T09:06:28;1.50;;;1.40;;
28427;SDS011;15662;49.128;8.520;2023-07-20T09:08:58;2.15;;;1.60;;
28427;SDS011;15662;49.128;8.520;2023-07-20T09:11:27;1.80;;;1.38;;
28427;SDS011;15662;49.128;8.520;2023-07-20T09:14:02;1.10;;;1.10;;
28427;SDS011;15662;49.128;8.520;2023-07-20T09:16:54;1.25;;;1.15;;
28427;SDS011;15662;49.128;8.520;2023-07-20T09:19:23;1.98;;;1.23;;
28427;SDS011;15662;49.128;8.520;2023-07-20T09:21:52;0.85;;;0.85;;
28427;SDS011;15662;49.128;8.520;2023-07-20T09:24:20;1.73;;;1.00;;
28427;SDS011;15662;49.128;8.520;2023-07-20T09:26:51;1.27;;;0.85;;
28427;SDS011;15662;49.128;8.520;2023-07-20T09:29:19;0.98;;;0.88;;
28427;SDS011;15662;49.128;8.520;2023-07-20T09:32:21;1.08;;;0.90;;
28427;SDS011;15662;49.128;8.520;2023-07-20T09:34:49;1.83;;;1.20;;
28427;SDS011;15662;49.128;8.520;2023-07-20T09:37:22;1.17;;;1.08;;
28427;SDS011;15662;49.128;8.520;2023-07-20T09:39:52;0.90;;;0.90;;
28427;SDS011;15662;49.128;8.520;2023-07-20T09:42:23;1.83;;;1.10;;
28427;SDS011;15662;49.128;8.520;2023-07-20T09:44:57;1.13;;;0.95;;
28427;SDS011;15662;49.128;8.520;2023-07-20T09:47:26;1.08;;;1.05;;
28427;SDS011;15662;49.128;8.520;2023-07-20T09:49:59;1.42;;;1.02;;
28427;SDS011;15662;49.128;8.520;2023-07-20T09:52:33;1.70;;;1.15;;
28427;SDS011;15662;49.128;8.520;2023-07-20T09:55:08;0.98;;;0.80;;
28427;SDS011;15662;49.128;8.520;2023-07-20T09:57:39;0.80;;;0.80;;
28427;SDS011;15662;49.128;8.520;2023-07-20T10:00:08;3.00;;;1.20;;
28427;SDS011;15662;49.128;8.520;2023-07-20T10:02:45;0.80;;;0.80;;
28427;SDS011;15662;49.128;8.520;2023-07-20T10:05:17;2.65;;;0.95;;
28427;SDS011;15662;49.128;8.520;2023-07-20T10:07:48;1.23;;;1.13;;
28427;SDS011;15662;49.128;8.520;2023-07-20T10:10:40;0.90;;;0.90;;
28427;SDS011;15662;49.128;8.520;2023-07-20T10:13:17;0.82;;;0.82;;
28427;SDS011;15662;49.128;8.520;2023-07-20T10:15:50;1.10;;;1.00;;
28427;SDS011;15662;49.128;8.520;2023-07-20T10:18:34;1.52;;;1.08;;
28427;SDS011;15662;49.128;8.520;2023-07-20T10:21:19;1.73;;;1.00;;
28427;SDS011;15662;49.128;8.520;2023-07-20T10:23:54;1.88;;;1.00;;
28427;SDS011;15662;49.128;8.520;2023-07-20T10:26:26;1.05;;;1.00;;
28427;SDS011;15662;49.128;8.520;2023-07-20T10:28:55;1.17;;;0.63;;
28427;SDS011;15662;49.128;8.520;2023-07-20T10:31:24;1.45;;;0.82;;
28427;SDS011;15662;49.128;8.520;2023-07-20T10:33:56;0.85;;;0.85;;
28427;SDS011;15662;49.128;8.520;2023-07-20T10:36:27;0.70;;;0.70;;
28427;SDS011;15662;49.128;8.520;2023-07-20T10:38:59;1.67;;;1.10;;
28427;SDS011;15662;49.128;8.520;2023-07-20T10:44:04;2.00;;;0.90;;
28427;SDS011;15662;49.128;8.520;2023-07-20T10:46:41;1.33;;;1.10;;
28427;SDS011;15662;49.128;8.520;2023-07-20T10:49:13;1.05;;;0.93;;
28427;SDS011;15662;49.128;8.520;2023-07-20T10:51:47;0.88;;;0.88;;
28427;SDS011;15662;49.128;8.520;2023-07-20T10:56:57;2.35;;;1.05;;
28427;SDS011;15662;49.128;8.520;2023-07-20T11:00:11;1.50;;;1.40;;
28427;SDS011;15662;49.128;8.520;2023-07-20T11:02:43;1.38;;;1.27;;
28427;SDS011;15662;49.128;8.520;2023-07-20T11:08:10;0.98;;;0.98;;
28427;SDS011;15662;49.128;8.520;2023-07-20T11:10:43;2.47;;;0.90;;
28427;SDS011;15662;49.128;8.520;2023-07-20T11:18:27;3.17;;;1.00;;
28427;SDS011;15662;49.128;8.520;2023-07-20T11:20:56;1.33;;;0.80;;
28427;SDS011;15662;49.128;8.520;2023-07-20T11:23:25;1.30;;;1.00;;
28427;SDS011;15662;49.128;8.520;2023-07-20T11:25:54;1.15;;;0.90;;
28427;SDS011;15662;49.128;8.520;2023-07-20T11:28:24;0.90;;;0.90;;
28427;SDS011;15662;49.128;8.520;2023-07-20T11:30:53;2.35;;;1.00;;
28427;SDS011;15662;49.128;8.520;2023-07-20T11:33:22;0.80;;;0.80;;
28427;SDS011;15662;49.128;8.520;2023-07-20T11:35:51;1.20;;;1.02;;
28427;SDS011;15662;49.128;8.520;2023-07-20T11:38:20;1.70;;;1.00;;
28427;SDS011;15662;49.128;8.520;2023-07-20T11:40:50;4.38;;;1.10;;
28427;SDS011;15662;49.128;8.520;2023-07-20T11:43:20;1.10;;;0.97;;
28427;SDS011;15662;49.128;8.520;2023-07-20T11:45:52;0.85;;;0.85;;
28427;SDS011;15662;49.128;8.520;2023-07-20T11:48:21;0.90;;;0.90;;
28427;SDS011;15662;49.128;8.520;2023-07-20T11:50:50;1.10;;;1.02;;
28427;SDS011;15662;49.128;8.520;2023-07-20T11:53:19;2.13;;;1.05;;
28427;SDS011;15662;49.128;8.520;2023-07-20T11:55:48;0.80;;;0.80;;
28427;SDS011;15662;49.128;8.520;2023-07-20T11:58:18;0.80;;;0.80;;
28427;SDS011;15662;49.128;8.520;2023-07-20T12:00:47;1.05;;;1.00;;
28427;SDS011;15662;49.128;8.520;2023-07-20T12:03:16;0.85;;;0.85;;
28427;SDS011;15662;49.128;8.520;2023-07-20T12:05:45;1.65;;;1.05;;
28427;SDS011;15662;49.128;8.520;2023-07-20T12:08:28;1.65;;;1.20;;
28427;SDS011;15662;49.128;8.520;2023-07-20T12:10:57;1.13;;;1.02;;
28427;SDS011;15662;49.128;8.520;2023-07-20T12:13:45;2.63;;;1.20;;
28427;SDS011;15662;49.128;8.520;2023-07-20T12:16:15;1.00;;;1.00;;
28427;SDS011;15662;49.128;8.520;2023-07-20T12:18:48;0.80;;;0.80;;
28427;SDS011;15662;49.128;8.520;2023-07-20T12:21:28;2.55;;;1.10;;
28427;SDS011;15662;49.128;8.520;2023-07-20T12:24:04;1.40;;;1.00;;
28427;SDS011;15662;49.128;8.520;2023-07-20T12:26:34;1.15;;;1.10;;
28427;SDS011;15662;49.128;8.520;2023-07-20T12:29:03;0.90;;;0.90;;
28427;SDS011;15662;49.128;8.520;2023-07-20T12:31:36;1.20;;;1.10;;
28427;SDS011;15662;49.128;8.520;2023-07-20T12:34:05;1.10;;;1.10;;
28427;SDS011;15662;49.128;8.520;2023-07-20T12:36:36;0.90;;;0.90;;
28427;SDS011;15662;49.128;8.520;2023-07-20T12:39:09;1.00;;;1.00;;
28427;SDS011;15662;49.128;8.520;2023-07-20T12:41:37;0.80;;;0.80;;
28427;SDS011;15662;49.128;8.520;2023-07-20T12:44:08;0.80;;;0.80;;
28427;SDS011;15662;49.128;8.520;2023-07-20T12:46:39;0.98;;;0.98;;
28427;SDS011;15662;49.128;8.520;2023-07-20T12:49:07;1.08;;;0.98;;
28427;SDS011;15662;49.128;8.520;2023-07-20T12:51:36;2.60;;;1.30;;
28427;SDS011;15662;49.128;8.520;2023-07-20T12:54:06;1.10;;;1.00;;
28427;SDS011;15662;49.128;8.520;2023-07-20T12:56:35;0.98;;;0.93;;
28427;SDS011;15662;49.128;8.520;2023-07-20T12:59:07;1.20;;;1.10;;
28427;SDS011;15662;49.128;8.520;2023-07-20T13:01:36;1.08;;;1.00;;
28427;SDS011;15662;49.128;8.520;2023-07-20T13:04:06;2.57;;;1.10;;
28427;SDS011;15662;49.128;8.520;2023-07-20T13:06:43;1.27;;;0.90;;
28427;SDS011;15662;49.128;8.520;2023-07-20T13:09:11;1.55;;;0.93;;
28427;SDS011;15662;49.128;8.520;2023-07-20T13:11:40;2.03;;;0.88;;
28427;SDS011;15662;49.128;8.520;2023-07-20T13:14:08;1.00;;;1.00;;
28427;SDS011;15662;49.128;8.520;2023-07-20T13:16:39;8.32;;;0.93;;
28427;SDS011;15662;49.128;8.520;2023-07-20T13:19:08;0.90;;;0.90;;
28427;SDS011;15662;49.128;8.520;2023-07-20T13:21:39;0.85;;;0.85;;
28427;SDS011;15662;49.128;8.520;2023-07-20T13:24:08;0.90;;;0.90;;
28427;SDS011;15662;49.128;8.520;2023-07-20T13:26:37;1.05;;;0.70;;
28427;SDS011;15662;49.128;8.520;2023-07-20T13:29:28;0.80;;;0.80;;
28427;SDS011;15662;49.128;8.520;2023-07-20T13:32:02;0.80;;;0.80;;
28427;SDS011;15662;49.128;8.520;2023-07-20T13:34:36;2.17;;;1.10;;
28427;SDS011;15662;49.128;8.520;2023-07-20T13:37:09;1.15;;;0.85;;
28427;SDS011;15662;49.128;8.520;2023-07-20T13:39:41;1.05;;;0.90;;
28427;SDS011;15662;49.128;8.520;2023-07-20T13:42:11;1.80;;;1.10;;
28427;SDS011;15662;49.128;8.520;2023-07-20T13:44:41;0.90;;;0.90;;
28427;SDS011;15662;49.128;8.520;2023-07-20T13:47:10;2.28;;;0.88;;
28427;SDS011;15662;49.128;8.520;2023-07-20T13:49:42;1.00;;;0.90;;
28427;SDS011;15662;49.128;8.520;2023-07-20T13:52:15;0.75;;;0.75;;
28427;SDS011;15662;49.128;8.520;2023-07-20T13:54:48;1.00;;;0.90;;
28427;SDS011;15662;49.128;8.520;2023-07-20T13:57:23;0.90;;;0.90;;
28427;SDS011;15662;49.128;8.520;2023-07-20T13:59:54;1.75;;;0.98;;
28427;SDS011;15662;49.128;8.520;2023-07-20T14:02:24;0.93;;;0.90;;
28427;SDS011;15662;49.128;8.520;2023-07-20T14:04:56;0.98;;;0.93;;
28427;SDS011;15662;49.128;8.520;2023-07-20T14:07:29;0.70;;;0.70;;
28427;SDS011;15662;49.128;8.520;2023-07-20T14:09:58;0.85;;;0.85;;
28427;SDS011;15662;49.128;8.520;2023-07-20T14:12:32;1.23;;;0.93;;
28427;SDS011;15662;49.128;8.520;2023-07-20T14:15:03;0.90;;;0.70;;
28427;SDS011;15662;49.128;8.520;2023-07-20T14:17:35;1.13;;;1.00;;
28427;SDS011;15662;49.128;8.520;2023-07-20T14:20:05;2.65;;;1.00;;
28427;SDS011;15662;49.128;8.520;2023-07-20T14:22:39;0.80;;;0.80;;
28427;SDS011;15662;49.128;8.520;2023-07-20T14:25:09;0.50;;;0.50;;
28427;SDS011;15662;49.128;8.520;2023-07-20T14:27:37;0.80;;;0.80;;
28427;SDS011;15662;49.128;8.520;2023-07-20T14:30:08;1.10;;;0.90;;
28427;SDS011;15662;49.128;8.520;2023-07-20T14:32:36;0.80;;;0.80;;
28427;SDS011;15662;49.128;8.520;2023-07-20T14:35:06;0.80;;;0.80;;
28427;SDS011;15662;49.128;8.520;2023-07-20T14:40:09;1.08;;;0.80;;
28427;SDS011;15662;49.128;8.520;2023-07-20T14:42:42;0.88;;;0.70;;
28427;SDS011;15662;49.128;8.520;2023-07-20T14:45:11;0.95;;;0.95;;
28427;SDS011;15662;49.128;8.520;2023-07-20T14:47:42;1.52;;;1.20;;
28427;SDS011;15662;49.128;8.520;2023-07-20T14:50:10;4.05;;;0.98;;
28427;SDS011;15662;49.128;8.520;2023-07-20T14:52:40;0.77;;;0.77;;
28427;SDS011;15662;49.128;8.520;2023-07-20T14:55:11;0.93;;;0.85;;
28427;SDS011;15662;49.128;8.520;2023-07-20T14:57:41;1.48;;;0.85;;
28427;SDS011;15662;49.128;8.520;2023-07-20T15:00:10;2.78;;;0.70;;
28427;SDS011;15662;49.128;8.520;2023-07-20T15:02:40;0.77;;;0.77;;
28427;SDS011;15662;49.128;8.520;2023-07-20T15:05:10;0.70;;;0.70;;
28427;SDS011;15662;49.128;8.520;2023-07-20T15:07:39;0.68;;;0.68;;
28427;SDS011;15662;49.128;8.520;2023-07-20T15:10:08;0.75;;;0.70;;
28427;SDS011;15662;49.128;8.520;2023-07-20T15:12:37;0.80;;;0.80;;
28427;SDS011;15662;49.128;8.520;2023-07-20T15:15:07;0.80;;;0.80;;
28427;SDS011;15662;49.128;8.520;2023-07-20T15:17:38;0.70;;;0.70;;
28427;SDS011;15662;49.128;8.520;2023-07-20T15:20:09;0.82;;;0.80;;
28427;SDS011;15662;49.128;8.520;2023-07-20T15:22:40;2.05;;;0.82;;
28427;SDS011;15662;49.128;8.520;2023-07-20T15:25:09;0.80;;;0.80;;
28427;SDS011;15662;49.128;8.520;2023-07-20T15:27:39;0.85;;;0.70;;
28427;SDS011;15662;49.128;8.520;2023-07-20T15:30:17;0.85;;;0.80;;
28427;SDS011;15662;49.128;8.520;2023-07-20T15:32:50;0.93;;;0.88;;
28427;SDS011;15662;49.128;8.520;2023-07-20T15:35:23;0.90;;;0.90;;
28427;SDS011;15662;49.128;8.520;2023-07-20T15:37:53;2.33;;;0.90;;
28427;SDS011;15662;49.128;8.520;2023-07-20T15:42:53;0.77;;;0.77;;
28427;SDS011;15662;49.128;8.520;2023-07-20T15:45:21;0.70;;;0.70;;
28427;SDS011;15662;49.128;8.520;2023-07-20T15:47:51;1.00;;;0.83;;